createdAt,value
2022-09-30T00:00:47.074Z,11.35
2022-09-30T00:01:47.387Z,11.37
2022-09-30T00:02:47.067Z,11.35
2022-09-30T00:03:47.099Z,11.33
2022-09-30T00:04:47.111Z,11.33
2022-09-30T00:05:47.135Z,11.37
2022-09-30T00:06:46.889Z,11.29
2022-09-30T00:07:47.180Z,11.3
2022-09-30T00:08:46.915Z,11.33
2022-09-30T00:09:47.101Z,11.32
2022-09-30T00:10:46.707Z,11.27
2022-09-30T00:11:46.979Z,11.23
2022-09-30T00:12:46.980Z,11.23
2022-09-30T00:13:47.255Z,11.27
2022-09-30T00:14:47.010Z,11.25
2022-09-30T00:15:47.341Z,11.22
2022-09-30T00:16:47.336Z,11.26
2022-09-30T00:17:47.322Z,11.26
2022-09-30T00:18:47.354Z,11.18
2022-09-30T00:19:46.844Z,11.22
2022-09-30T00:20:47.112Z,11.17
2022-09-30T00:21:47.131Z,11.12
2022-09-30T00:22:46.892Z,11.15
2022-09-30T00:23:47.416Z,11.26
2022-09-30T00:24:47.187Z,11.1
2022-09-30T00:25:47.231Z,11.12
2022-09-30T00:26:47.477Z,11.12
2022-09-30T00:27:47.241Z,11.15
2022-09-30T00:28:47.519Z,11.14
2022-09-30T00:29:47.526Z,11.12
2022-09-30T00:30:47.636Z,11.12
2022-09-30T00:31:47.539Z,11.12
2022-09-30T00:32:47.604Z,11.11
2022-09-30T00:33:47.332Z,11.11
2022-09-30T00:34:47.348Z,11.08
2022-09-30T00:35:47.357Z,11.1
2022-09-30T00:36:47.379Z,11.12
2022-09-30T00:37:47.665Z,11.12
2022-09-30T00:38:47.696Z,11.1
2022-09-30T00:39:47.688Z,11.12
2022-09-30T00:40:47.180Z,11.1
2022-09-30T00:41:47.751Z,11.11
2022-09-30T00:42:47.221Z,11.05
2022-09-30T00:43:47.245Z,11.08
2022-09-30T00:44:47.518Z,11.08
2022-09-30T00:45:47.787Z,11.05
2022-09-30T00:46:49.772Z,11.04
2022-09-30T00:47:47.564Z,11.1
2022-09-30T00:48:47.940Z,11.02
2022-09-30T00:49:47.848Z,11.05
2022-09-30T00:50:47.932Z,11.04
2022-09-30T00:51:47.631Z,11.02
2022-09-30T00:52:47.635Z,11.08
2022-09-30T00:53:47.925Z,11
2022-09-30T00:54:47.941Z,11.07
2022-09-30T00:55:47.953Z,11.08
2022-09-30T00:56:47.971Z,10.99
2022-09-30T00:57:47.757Z,10.94
2022-09-30T00:58:47.739Z,11.04
2022-09-30T00:59:48.013Z,11.02
2022-09-30T01:00:47.972Z,11.04
2022-09-30T01:01:47.981Z,11.05
2022-09-30T01:02:48.086Z,11.07
2022-09-30T01:03:48.080Z,10.96
2022-09-30T01:04:48.148Z,10.97
2022-09-30T01:05:47.852Z,11
2022-09-30T01:06:48.161Z,10.96
2022-09-30T01:07:47.896Z,10.99
2022-09-30T01:08:47.900Z,11.07
2022-09-30T01:09:48.493Z,10.97
2022-09-30T01:10:47.940Z,11
2022-09-30T01:11:48.056Z,10.97
2022-09-30T01:12:47.970Z,10.96
2022-09-30T01:13:48.286Z,11.04
2022-09-30T01:14:47.996Z,10.94
2022-09-30T01:15:48.036Z,11
2022-09-30T01:16:48.041Z,10.97
2022-09-30T01:17:48.081Z,11
2022-09-30T01:18:48.071Z,10.93
2022-09-30T01:19:48.087Z,10.96
2022-09-30T01:20:48.156Z,10.96
2022-09-30T01:21:48.118Z,10.9
2022-09-30T01:22:48.136Z,10.93
2022-09-30T01:23:48.417Z,10.9
2022-09-30T01:24:48.180Z,10.94
2022-09-30T01:25:48.441Z,10.82
2022-09-30T01:26:48.196Z,10.86
2022-09-30T01:27:47.960Z,10.81
2022-09-30T01:28:48.236Z,10.96
2022-09-30T01:29:48.272Z,10.78
2022-09-30T01:30:48.267Z,10.92
2022-09-30T01:31:48.765Z,10.97
2022-09-30T01:32:48.308Z,10.87
2022-09-30T01:33:48.320Z,10.87
2022-09-30T01:34:48.085Z,10.76
2022-09-30T01:35:48.604Z,10.86
2022-09-30T01:36:48.674Z,10.86
2022-09-30T01:37:48.635Z,10.9
2022-09-30T01:38:48.660Z,10.79
2022-09-30T01:39:48.160Z,10.84
2022-09-30T01:40:48.688Z,10.84
2022-09-30T01:41:48.442Z,10.78
2022-09-30T01:42:48.726Z,10.81
2022-09-30T01:43:48.476Z,10.81
2022-09-30T01:44:48.243Z,10.82
2022-09-30T01:45:48.543Z,10.79
2022-09-30T01:46:49.079Z,10.82
2022-09-30T01:47:48.547Z,10.78
2022-09-30T01:48:48.567Z,10.78
2022-09-30T01:49:48.318Z,10.82
2022-09-30T01:50:49.115Z,10.74
2022-09-30T01:51:48.358Z,10.78
2022-09-30T01:52:48.932Z,10.79
2022-09-30T01:53:48.646Z,10.82
2022-09-30T01:54:48.920Z,10.81
2022-09-30T01:55:48.669Z,10.82
2022-09-30T01:56:48.967Z,10.79
2022-09-30T01:57:49.011Z,10.75
2022-09-30T01:58:48.995Z,10.79
2022-09-30T01:59:48.747Z,10.81
2022-09-30T02:00:49.275Z,10.71
2022-09-30T02:01:49.366Z,10.72
2022-09-30T02:02:49.232Z,10.82
2022-09-30T02:03:49.064Z,10.72
2022-09-30T02:04:48.821Z,10.76
2022-09-30T02:05:48.841Z,10.79
2022-09-30T02:06:49.115Z,10.74
2022-09-30T02:07:49.137Z,10.79
2022-09-30T02:08:48.951Z,10.78
2022-09-30T02:09:49.433Z,10.71
2022-09-30T02:10:48.925Z,10.74
2022-09-30T02:11:48.944Z,10.69
2022-09-30T02:12:48.966Z,10.67
2022-09-30T02:13:49.228Z,10.67
2022-09-30T02:14:48.990Z,10.68
2022-09-30T02:15:49.034Z,10.67
2022-09-30T02:16:49.016Z,10.69
2022-09-30T02:17:49.329Z,10.75
2022-09-30T02:18:49.059Z,10.61
2022-09-30T02:19:48.811Z,10.64
2022-09-30T02:20:49.095Z,10.68
2022-09-30T02:21:49.106Z,10.61
2022-09-30T02:22:48.865Z,10.59
2022-09-30T02:23:48.884Z,10.69
2022-09-30T02:24:49.457Z,10.64
2022-09-30T02:25:49.429Z,10.61
2022-09-30T02:26:49.441Z,10.72
2022-09-30T02:27:49.259Z,10.72
2022-09-30T02:28:49.479Z,10.63
2022-09-30T02:29:49.490Z,10.63
2022-09-30T02:30:49.516Z,10.61
2022-09-30T02:31:49.762Z,10.6
2022-09-30T02:32:49.326Z,10.63
2022-09-30T02:33:49.586Z,10.67
2022-09-30T02:34:49.315Z,10.56
2022-09-30T02:35:49.086Z,10.64
2022-09-30T02:36:49.094Z,10.61
2022-09-30T02:37:49.375Z,10.59
2022-09-30T02:38:49.378Z,10.59
2022-09-30T02:39:49.661Z,10.63
2022-09-30T02:40:49.719Z,10.6
2022-09-30T02:41:49.691Z,10.69
2022-09-30T02:42:49.455Z,10.63
2022-09-30T02:43:49.730Z,10.59
2022-09-30T02:44:49.507Z,10.71
2022-09-30T02:45:49.494Z,10.69
2022-09-30T02:46:49.876Z,10.61
2022-09-30T02:47:49.851Z,10.61
2022-09-30T02:48:49.552Z,10.61
2022-09-30T02:49:49.587Z,10.59
2022-09-30T02:50:49.927Z,10.61
2022-09-30T02:51:49.340Z,10.51
2022-09-30T02:52:49.609Z,10.48
2022-09-30T02:53:49.889Z,10.61
2022-09-30T02:54:49.644Z,10.53
2022-09-30T02:55:49.920Z,10.53
2022-09-30T02:56:49.985Z,10.6
2022-09-30T02:57:49.428Z,10.51
2022-09-30T02:58:49.709Z,10.48
2022-09-30T02:59:49.732Z,10.53
2022-09-30T03:00:49.929Z,10.56
2022-09-30T03:01:49.926Z,10.53
2022-09-30T03:02:50.020Z,10.44
2022-09-30T03:03:50.068Z,10.57
2022-09-30T03:04:49.816Z,10.51
2022-09-30T03:05:50.096Z,10.49
2022-09-30T03:06:49.837Z,10.51
2022-09-30T03:07:49.910Z,10.53
2022-09-30T03:08:50.126Z,10.54
2022-09-30T03:09:50.166Z,10.42
2022-09-30T03:10:50.171Z,10.48
2022-09-30T03:11:50.191Z,10.48
2022-09-30T03:12:50.016Z,10.49
2022-09-30T03:13:50.213Z,10.53
2022-09-30T03:14:50.229Z,10.54
2022-09-30T03:15:50.326Z,10.49
2022-09-30T03:16:50.259Z,10.51
2022-09-30T03:17:50.013Z,10.54
2022-09-30T03:18:50.297Z,10.48
2022-09-30T03:19:50.050Z,10.56
2022-09-30T03:20:50.077Z,10.53
2022-09-30T03:21:50.113Z,10.53
2022-09-30T03:22:50.100Z,10.44
2022-09-30T03:23:50.372Z,10.48
2022-09-30T03:24:50.133Z,10.51
2022-09-30T03:25:50.406Z,10.46
2022-09-30T03:26:50.426Z,10.42
2022-09-30T03:27:50.178Z,10.37
2022-09-30T03:28:50.623Z,10.44
2022-09-30T03:29:50.207Z,10.35
2022-09-30T03:30:50.496Z,10.46
2022-09-30T03:31:50.248Z,10.46
2022-09-30T03:32:50.503Z,10.51
2022-09-30T03:33:50.542Z,10.42
2022-09-30T03:34:50.542Z,10.48
2022-09-30T03:35:50.055Z,10.46
2022-09-30T03:36:50.579Z,10.42
2022-09-30T03:37:50.623Z,10.44
2022-09-30T03:38:50.356Z,10.46
2022-09-30T03:39:50.374Z,10.42
2022-09-30T03:40:50.652Z,10.48
2022-09-30T03:41:50.400Z,10.44
2022-09-30T03:42:50.184Z,10.4
2022-09-30T03:43:50.701Z,10.4
2022-09-30T03:44:50.831Z,10.48
2022-09-30T03:45:50.737Z,10.33
2022-09-30T03:46:50.997Z,10.42
2022-09-30T03:47:50.752Z,10.38
2022-09-30T03:48:50.786Z,10.41
2022-09-30T03:49:50.810Z,10.38
2022-09-30T03:50:51.213Z,10.48
2022-09-30T03:51:53.442Z,10.4
2022-09-30T03:52:50.580Z,10.4
2022-09-30T03:53:50.625Z,10.31
2022-09-30T03:54:50.619Z,10.4
2022-09-30T03:55:50.899Z,10.31
2022-09-30T03:56:50.655Z,10.38
2022-09-30T03:57:50.668Z,10.37
2022-09-30T03:58:50.956Z,10.37
2022-09-30T03:59:50.958Z,10.33
2022-09-30T04:00:51.347Z,10.4
2022-09-30T04:01:50.974Z,10.4
2022-09-30T04:02:53.621Z,10.37
2022-09-30T04:03:50.517Z,10.41
2022-09-30T04:04:50.775Z,10.37
2022-09-30T04:05:51.069Z,10.35
2022-09-30T04:06:50.805Z,10.37
2022-09-30T04:07:51.081Z,10.25
2022-09-30T04:08:51.106Z,10.4
2022-09-30T04:09:51.413Z,10.33
2022-09-30T04:10:50.878Z,10.31
2022-09-30T04:11:50.892Z,10.26
2022-09-30T04:12:50.894Z,10.31
2022-09-30T04:13:51.178Z,10.37
2022-09-30T04:14:51.199Z,10.26
2022-09-30T04:15:51.229Z,10.35
2022-09-30T04:16:56.304Z,10.25
2022-09-30T04:17:51.250Z,10.35
2022-09-30T04:18:51.002Z,10.35
2022-09-30T04:19:51.030Z,10.33
2022-09-30T04:20:51.046Z,10.3
2022-09-30T04:21:51.307Z,10.3
2022-09-30T04:22:51.061Z,10.33
2022-09-30T04:23:51.348Z,10.35
2022-09-30T04:24:51.367Z,10.3
2022-09-30T04:25:51.390Z,10.3
2022-09-30T04:26:51.388Z,10.31
2022-09-30T04:27:51.150Z,10.3
2022-09-30T04:28:51.426Z,10.22
2022-09-30T04:29:50.922Z,10.25
2022-09-30T04:30:51.195Z,10.35
2022-09-30T04:31:51.662Z,10.26
2022-09-30T04:32:51.607Z,10.34
2022-09-30T04:33:51.499Z,10.3
2022-09-30T04:34:51.260Z,10.19
2022-09-30T04:35:51.542Z,10.23
2022-09-30T04:36:51.293Z,10.3
2022-09-30T04:37:51.573Z,10.25
2022-09-30T04:38:51.579Z,10.33
2022-09-30T04:39:51.610Z,10.3
2022-09-30T04:40:51.372Z,10.28
2022-09-30T04:41:51.667Z,10.31
2022-09-30T04:42:51.391Z,10.22
2022-09-30T04:43:51.542Z,10.23
2022-09-30T04:44:51.170Z,10.25
2022-09-30T04:45:51.928Z,10.25
2022-09-30T04:46:51.194Z,10.23
2022-09-30T04:47:51.239Z,10.3
2022-09-30T04:48:51.538Z,10.17
2022-09-30T04:49:51.759Z,10.26
2022-09-30T04:50:51.940Z,10.25
2022-09-30T04:51:51.793Z,10.16
2022-09-30T04:52:51.810Z,10.22
2022-09-30T04:53:51.823Z,10.22
2022-09-30T04:54:51.332Z,10.23
2022-09-30T04:55:51.863Z,10.17
2022-09-30T04:56:51.627Z,10.26
2022-09-30T04:57:51.922Z,10.12
2022-09-30T04:58:51.909Z,10.25
2022-09-30T04:59:51.932Z,10.26
2022-09-30T05:00:52.109Z,10.13
2022-09-30T05:01:51.653Z,10.19
2022-09-30T05:02:51.721Z,10.2
2022-09-30T05:03:52.010Z,10.15
2022-09-30T05:04:52.058Z,10.2
2022-09-30T05:05:51.769Z,10.16
2022-09-30T05:06:51.786Z,10.19
2022-09-30T05:07:52.062Z,10.13
2022-09-30T05:08:51.811Z,10.16
2022-09-30T05:09:51.896Z,10.15
2022-09-30T05:10:52.109Z,10.22
2022-09-30T05:11:52.112Z,10.12
2022-09-30T05:12:52.140Z,10.12
2022-09-30T05:13:52.178Z,10.16
2022-09-30T05:14:52.159Z,10.15
2022-09-30T05:15:51.786Z,10.2
2022-09-30T05:16:52.203Z,10.16
2022-09-30T05:17:51.962Z,10.17
2022-09-30T05:18:51.978Z,10.25
2022-09-30T05:19:51.741Z,10.13
2022-09-30T05:20:52.221Z,10.19
2022-09-30T05:21:52.020Z,10.17
2022-09-30T05:22:52.299Z,10.16
2022-09-30T05:23:52.317Z,10.16
2022-09-30T05:24:52.329Z,10.16
2022-09-30T05:25:52.351Z,10.22
2022-09-30T05:26:51.894Z,10.15
2022-09-30T05:27:51.860Z,10.12
2022-09-30T05:28:52.401Z,10.13
2022-09-30T05:29:52.175Z,10.09
2022-09-30T05:30:52.465Z,10.13
2022-09-30T05:31:52.673Z,10.05
2022-09-30T05:32:52.480Z,10.1
2022-09-30T05:33:58.147Z,10.04
2022-09-30T05:34:52.231Z,10.04
2022-09-30T05:35:52.508Z,10.15
2022-09-30T05:36:52.586Z,10.07
2022-09-30T05:37:52.019Z,10.01
2022-09-30T05:38:52.297Z,10.02
2022-09-30T05:39:52.312Z,10.12
2022-09-30T05:40:52.605Z,10.07
2022-09-30T05:41:52.603Z,10.16
2022-09-30T05:42:52.762Z,10.09
2022-09-30T05:43:52.821Z,10.04
2022-09-30T05:44:52.652Z,10.12
2022-09-30T05:45:52.687Z,10.05
2022-09-30T05:46:52.733Z,10.07
2022-09-30T05:47:52.798Z,10.09
2022-09-30T05:48:52.450Z,10.19
2022-09-30T05:49:57.719Z,10.05
2022-09-30T05:50:52.782Z,10.13
2022-09-30T05:51:52.255Z,10.19
2022-09-30T05:52:52.563Z,10.09
2022-09-30T05:53:52.534Z,10.05
2022-09-30T05:54:52.823Z,10.22
2022-09-30T05:55:52.821Z,10.13
2022-09-30T05:56:52.587Z,10.12
2022-09-30T05:57:52.615Z,10.15
2022-09-30T05:58:52.924Z,10.15
2022-09-30T05:59:52.894Z,10.19
2022-09-30T06:00:52.396Z,10.15
2022-09-30T06:01:53.289Z,10.13
2022-09-30T06:02:53.223Z,10.17
2022-09-30T06:03:52.706Z,10.2
2022-09-30T06:04:52.968Z,10.15
2022-09-30T06:05:52.998Z,10.19
2022-09-30T06:06:52.997Z,10.17
2022-09-30T06:07:52.752Z,10.15
2022-09-30T06:08:53.149Z,10.13
2022-09-30T06:09:53.251Z,10.16
2022-09-30T06:10:52.910Z,10.13
2022-09-30T06:11:53.090Z,10.2
2022-09-30T06:12:52.836Z,10.23
2022-09-30T06:13:52.857Z,10.19
2022-09-30T06:14:52.880Z,10.17
2022-09-30T06:15:53.148Z,10.17
2022-09-30T06:16:53.465Z,10.2
2022-09-30T06:17:53.211Z,10.25
2022-09-30T06:18:52.936Z,10.26
2022-09-30T06:19:52.949Z,10.28
2022-09-30T06:20:52.972Z,10.26
2022-09-30T06:21:53.242Z,10.33
2022-09-30T06:22:52.994Z,10.23
2022-09-30T06:23:53.280Z,10.3
2022-09-30T06:24:58.983Z,10.33
2022-09-30T06:25:53.316Z,10.28
2022-09-30T06:26:53.072Z,10.25
2022-09-30T06:27:53.079Z,10.26
2022-09-30T06:28:53.353Z,10.28
2022-09-30T06:29:53.371Z,10.3
2022-09-30T06:30:53.385Z,10.38
2022-09-30T06:31:53.301Z,10.37
2022-09-30T06:32:53.417Z,10.37
2022-09-30T06:33:53.460Z,10.41
2022-09-30T06:34:52.939Z,10.4
2022-09-30T06:35:53.223Z,10.48
2022-09-30T06:36:53.486Z,10.4
2022-09-30T06:37:53.236Z,10.42
2022-09-30T06:38:53.524Z,10.44
2022-09-30T06:39:53.264Z,10.46
2022-09-30T06:40:53.601Z,10.44
2022-09-30T06:41:53.564Z,10.48
2022-09-30T06:42:53.567Z,10.48
2022-09-30T06:44:08.123Z,10.49
2022-09-30T06:44:58.263Z,10.42
2022-09-30T06:46:02.557Z,10.35
2022-09-30T06:46:58.839Z,10.49
2022-09-30T06:48:04.618Z,10.51
2022-09-30T06:49:00.861Z,10.56
2022-09-30T06:49:55.237Z,10.51
2022-09-30T06:51:04.869Z,10.48
2022-09-30T06:51:53.986Z,10.54
2022-09-30T06:52:53.219Z,10.51
2022-09-30T06:53:58.041Z,10.56
2022-09-30T06:54:53.264Z,10.51
2022-09-30T06:55:53.795Z,10.49
2022-09-30T06:56:53.602Z,10.59
2022-09-30T06:57:53.816Z,10.51
2022-09-30T06:58:53.586Z,10.6
2022-09-30T06:59:53.606Z,10.57
2022-09-30T07:00:54.128Z,10.57
2022-09-30T07:01:53.539Z,10.6
2022-09-30T07:02:53.640Z,10.67
2022-09-30T07:03:59.314Z,10.59
2022-09-30T07:04:53.958Z,10.72
2022-09-30T07:05:53.974Z,10.61
2022-09-30T07:06:53.719Z,10.64
2022-09-30T07:07:53.727Z,10.64
2022-09-30T07:08:54.015Z,10.76
2022-09-30T07:09:59.745Z,10.68
2022-09-30T07:10:54.044Z,10.64
2022-09-30T07:11:54.067Z,10.82
2022-09-30T07:12:54.117Z,10.74
2022-09-30T07:13:54.192Z,10.79
2022-09-30T07:14:54.201Z,10.89
2022-09-30T07:15:54.122Z,10.75
2022-09-30T07:16:54.063Z,10.81
2022-09-30T07:17:53.892Z,10.81
2022-09-30T07:18:54.179Z,10.81
2022-09-30T07:19:54.181Z,10.9
2022-09-30T07:20:53.690Z,10.81
2022-09-30T07:21:53.980Z,10.93
2022-09-30T07:22:54.231Z,10.89
2022-09-30T07:23:53.748Z,10.94
2022-09-30T07:24:53.746Z,10.92
2022-09-30T07:25:54.023Z,11
2022-09-30T07:26:54.296Z,10.97
2022-09-30T07:27:54.318Z,10.97
2022-09-30T07:28:54.381Z,11.02
2022-09-30T07:30:27.349Z,11.04
2022-09-30T07:31:27.925Z,11.05
2022-09-30T07:31:54.529Z,11.05
2022-09-30T07:32:54.407Z,11.11
2022-09-30T07:33:54.420Z,11.07
2022-09-30T07:34:54.165Z,11.19
2022-09-30T07:35:53.933Z,11.18
2022-09-30T07:36:54.460Z,11.23
2022-09-30T07:37:54.508Z,11.23
2022-09-30T07:38:54.250Z,11.35
2022-09-30T07:39:54.253Z,11.4
2022-09-30T07:40:54.277Z,11.36
2022-09-30T07:41:54.037Z,11.33
2022-09-30T07:42:54.559Z,11.19
2022-09-30T07:43:54.584Z,11.35
2022-09-30T07:44:54.866Z,11.35
2022-09-30T07:45:54.843Z,11.41
2022-09-30T07:46:54.373Z,11.47
2022-09-30T07:47:58.623Z,11.43
2022-09-30T07:48:54.428Z,11.48
2022-09-30T07:49:54.685Z,11.37
2022-09-30T07:50:54.846Z,11.47
2022-09-30T07:51:54.452Z,11.48
2022-09-30T07:52:54.463Z,11.48
2022-09-30T07:53:54.528Z,11.48
2022-09-30T07:54:55.488Z,11.55
2022-09-30T07:55:54.782Z,11.5
2022-09-30T07:57:24.522Z,11.55
2022-09-30T07:57:54.799Z,11.54
2022-09-30T07:58:54.580Z,11.55
2022-09-30T07:59:54.590Z,11.57
2022-09-30T08:00:55.152Z,11.6
2022-09-30T08:01:54.851Z,11.59
2022-09-30T08:02:54.634Z,11.57
2022-09-30T08:03:54.660Z,11.68
2022-09-30T08:04:54.684Z,11.59
2022-09-30T08:05:54.699Z,11.57
2022-09-30T08:06:54.707Z,11.59
2022-09-30T08:07:54.723Z,11.62
2022-09-30T08:08:54.992Z,11.7
2022-09-30T08:09:55.025Z,11.63
2022-09-30T08:10:54.769Z,11.65
2022-09-30T08:11:55.055Z,11.6
2022-09-30T08:13:03.011Z,11.69
2022-09-30T08:13:54.586Z,11.65
2022-09-30T08:14:54.841Z,11.7
2022-09-30T08:15:55.107Z,11.63
2022-09-30T08:16:55.409Z,11.66
2022-09-30T08:17:55.153Z,11.68
2022-09-30T08:18:54.910Z,11.72
2022-09-30T08:19:55.180Z,11.68
2022-09-30T08:20:55.192Z,11.73
2022-09-30T08:21:55.582Z,11.75
2022-09-30T08:22:54.965Z,11.73
2022-09-30T08:23:54.990Z,11.77
2022-09-30T08:24:55.271Z,11.78
2022-09-30T08:25:55.315Z,11.73
2022-09-30T08:26:55.346Z,11.84
2022-09-30T08:27:55.058Z,11.86
2022-09-30T08:28:55.072Z,11.91
2022-09-30T08:30:05.163Z,11.8
2022-09-30T08:30:55.364Z,11.77
2022-09-30T08:31:55.634Z,11.88
2022-09-30T08:32:55.441Z,11.8
2022-09-30T08:33:55.159Z,11.83
2022-09-30T08:34:55.431Z,11.8
2022-09-30T08:35:55.211Z,11.87
2022-09-30T08:37:04.896Z,11.86
2022-09-30T08:37:55.675Z,11.83
2022-09-30T08:38:55.243Z,11.86
2022-09-30T08:39:55.526Z,11.91
2022-09-30T08:40:55.285Z,11.86
2022-09-30T08:41:55.565Z,11.88
2022-09-30T08:43:00.430Z,11.84
2022-09-30T08:43:55.330Z,11.9
2022-09-30T08:44:55.607Z,11.91
2022-09-30T08:45:55.895Z,11.91
2022-09-30T08:47:01.114Z,11.94
2022-09-30T08:47:55.697Z,11.88
2022-09-30T08:48:56.822Z,11.86
2022-09-30T08:49:55.683Z,11.99
2022-09-30T08:50:55.901Z,11.95
2022-09-30T08:51:55.203Z,12.04
2022-09-30T08:52:55.962Z,11.97
2022-09-30T08:53:55.501Z,12.03
2022-09-30T08:54:55.770Z,12.04
2022-09-30T08:55:55.528Z,12.03
2022-09-30T08:56:55.548Z,12.02
2022-09-30T08:57:55.835Z,12.02
2022-09-30T08:58:55.834Z,12.07
2022-09-30T08:59:55.848Z,12.04
2022-09-30T09:00:55.765Z,12.04
2022-09-30T09:01:56.061Z,12.06
2022-09-30T09:02:55.706Z,12.12
2022-09-30T09:03:55.656Z,12.09
2022-09-30T09:04:55.730Z,12.09
2022-09-30T09:05:57.268Z,12.12
2022-09-30T09:06:55.718Z,12.09
2022-09-30T09:07:55.735Z,12.17
2022-09-30T09:08:55.743Z,12.09
2022-09-30T09:09:56.019Z,12.12
2022-09-30T09:10:55.508Z,12.04
2022-09-30T09:11:55.793Z,12.03
2022-09-30T09:12:55.809Z,12.18
2022-09-30T09:13:56.244Z,12.17
2022-09-30T09:14:56.104Z,12.12
2022-09-30T09:15:55.857Z,12.24
2022-09-30T09:16:56.399Z,12.09
2022-09-30T09:18:26.848Z,12.18
2022-09-30T09:18:56.164Z,12.24
2022-09-30T09:19:56.192Z,12.12
2022-09-30T09:20:56.003Z,12.21
2022-09-30T09:21:55.966Z,12.2
2022-09-30T09:22:55.718Z,12.2
2022-09-30T09:23:56.002Z,12.25
2022-09-30T09:24:56.016Z,12.28
2022-09-30T09:25:56.297Z,12.2
2022-09-30T09:26:56.325Z,12.17
2022-09-30T09:27:56.312Z,12.31
2022-09-30T09:28:58.600Z,12.22
2022-09-30T09:29:56.380Z,12.31
2022-09-30T09:30:56.375Z,12.24
2022-09-30T09:31:56.700Z,12.27
2022-09-30T09:32:56.136Z,12.21
2022-09-30T09:33:56.167Z,12.32
2022-09-30T09:34:56.442Z,12.35
2022-09-30T09:35:56.454Z,12.27
2022-09-30T09:36:56.539Z,12.25
2022-09-30T09:37:56.486Z,12.31
2022-09-30T09:38:56.512Z,12.31
2022-09-30T09:39:58.435Z,12.29
2022-09-30T09:40:56.561Z,12.36
2022-09-30T09:41:56.563Z,12.37
2022-09-30T09:42:56.308Z,12.45
2022-09-30T09:43:56.178Z,12.42
2022-09-30T09:44:56.095Z,12.37
2022-09-30T09:45:57.050Z,12.31
2022-09-30T09:46:56.652Z,12.39
2022-09-30T09:47:56.410Z,12.43
2022-09-30T09:48:56.688Z,12.43
2022-09-30T09:50:02.019Z,12.49
2022-09-30T09:50:56.910Z,12.43
2022-09-30T09:51:56.722Z,12.45
2022-09-30T09:52:56.534Z,12.4
2022-09-30T09:53:56.772Z,12.42
2022-09-30T09:54:56.561Z,12.49
2022-09-30T09:55:56.790Z,12.49
2022-09-30T09:56:56.823Z,12.53
2022-09-30T09:57:56.834Z,12.49
2022-09-30T09:58:56.963Z,12.54
2022-09-30T09:59:56.573Z,12.55
2022-09-30T10:00:56.793Z,12.53
2022-09-30T10:01:57.157Z,12.57
2022-09-30T10:02:56.670Z,12.55
2022-09-30T10:03:56.933Z,12.58
2022-09-30T10:04:56.953Z,12.62
2022-09-30T10:05:56.981Z,12.57
2022-09-30T10:06:56.738Z,12.54
2022-09-30T10:07:56.493Z,12.65
2022-09-30T10:08:57.071Z,12.6
2022-09-30T10:09:56.776Z,12.65
2022-09-30T10:10:56.807Z,12.73
2022-09-30T10:11:56.818Z,12.72
2022-09-30T10:12:56.580Z,12.75
2022-09-30T10:13:56.851Z,12.67
2022-09-30T10:14:57.130Z,12.73
2022-09-30T10:15:56.843Z,12.67
2022-09-30T10:16:57.913Z,12.7
2022-09-30T10:17:57.196Z,12.68
2022-09-30T10:18:57.194Z,12.78
2022-09-30T10:19:57.207Z,12.79
2022-09-30T10:20:56.999Z,12.78
2022-09-30T10:22:00.212Z,12.87
2022-09-30T10:22:57.003Z,12.76
2022-09-30T10:23:57.291Z,12.86
2022-09-30T10:24:57.342Z,12.9
2022-09-30T10:25:57.071Z,12.9
2022-09-30T10:26:56.817Z,12.86
2022-09-30T10:27:57.295Z,12.87
2022-09-30T10:28:57.378Z,12.91
2022-09-30T10:29:57.378Z,12.93
2022-09-30T10:30:57.146Z,12.9
2022-09-30T10:32:03.634Z,13.01
2022-09-30T10:32:57.171Z,12.94
2022-09-30T10:33:57.480Z,12.98
2022-09-30T10:34:57.213Z,13
2022-09-30T10:35:57.478Z,13
2022-09-30T10:36:57.513Z,13.03
2022-09-30T10:37:57.532Z,13.11
2022-09-30T10:38:58.169Z,13.08
2022-09-30T10:39:57.563Z,13.03
2022-09-30T10:40:57.663Z,13.03
2022-09-30T10:41:57.579Z,13.08
2022-09-30T10:42:57.625Z,13.08
2022-09-30T10:43:57.640Z,13.08
2022-09-30T10:44:57.659Z,13.12
2022-09-30T10:46:29.639Z,13.13
2022-09-30T10:46:57.851Z,13.11
2022-09-30T10:47:57.174Z,13.22
2022-09-30T10:48:57.739Z,13.12
2022-09-30T10:49:57.579Z,13.18
2022-09-30T10:50:57.952Z,13.18
2022-09-30T10:51:57.761Z,13.19
2022-09-30T10:52:57.273Z,13.19
2022-09-30T10:53:57.801Z,13.28
2022-09-30T10:54:57.816Z,13.18
2022-09-30T10:55:57.828Z,13.16
2022-09-30T10:56:57.992Z,13.19
2022-09-30T10:57:57.613Z,13.23
2022-09-30T10:58:57.609Z,13.16
2022-09-30T10:59:57.898Z,13.2
2022-09-30T11:00:57.821Z,13.25
2022-09-30T11:02:05.857Z,13.19
2022-09-30T11:02:58.985Z,13.15
2022-09-30T11:03:57.900Z,13.15
2022-09-30T11:04:57.986Z,13.16
2022-09-30T11:05:57.894Z,13.18
2022-09-30T11:06:57.776Z,13.23
2022-09-30T11:07:58.037Z,13.2
2022-09-30T11:08:58.060Z,13.3
2022-09-30T11:09:58.081Z,13.23
2022-09-30T11:10:57.843Z,13.25
2022-09-30T11:11:57.597Z,13.38
2022-09-30T11:12:58.170Z,13.33
2022-09-30T11:13:58.150Z,13.39
2022-09-30T11:14:58.171Z,13.25
2022-09-30T11:15:57.943Z,13.39
2022-09-30T11:16:58.311Z,13.41
2022-09-30T11:17:57.958Z,13.35
2022-09-30T11:18:57.977Z,13.44
2022-09-30T11:19:57.989Z,13.46
2022-09-30T11:20:58.022Z,13.52
2022-09-30T11:21:58.381Z,13.52
2022-09-30T11:22:58.056Z,13.56
2022-09-30T11:23:58.070Z,13.52
2022-09-30T11:24:58.346Z,13.49
2022-09-30T11:25:58.108Z,13.5
2022-09-30T11:26:58.369Z,13.63
2022-09-30T11:27:58.290Z,13.57
2022-09-30T11:28:58.532Z,13.54
2022-09-30T11:29:58.163Z,13.54
2022-09-30T11:30:57.936Z,13.57
2022-09-30T11:31:58.673Z,13.62
2022-09-30T11:32:58.228Z,13.63
2022-09-30T11:33:58.243Z,13.59
2022-09-30T11:34:58.257Z,13.59
2022-09-30T11:35:58.280Z,13.6
2022-09-30T11:36:58.302Z,13.62
2022-09-30T11:37:58.602Z,13.57
2022-09-30T11:38:58.594Z,13.65
2022-09-30T11:39:58.623Z,13.62
2022-09-30T11:40:58.358Z,13.6
2022-09-30T11:41:58.635Z,13.67
2022-09-30T11:42:58.677Z,13.65
2022-09-30T11:43:58.676Z,13.54
2022-09-30T11:44:58.738Z,13.59
2022-09-30T11:45:58.799Z,13.57
2022-09-30T11:46:58.481Z,13.65
2022-09-30T11:47:58.523Z,13.67
2022-09-30T11:48:58.502Z,13.7
2022-09-30T11:49:58.526Z,13.7
2022-09-30T11:50:58.643Z,13.71
2022-09-30T11:51:58.819Z,13.68
2022-09-30T11:52:58.835Z,13.62
2022-09-30T11:53:58.880Z,13.72
2022-09-30T11:54:58.614Z,13.63
2022-09-30T11:55:58.651Z,13.77
2022-09-30T11:56:58.650Z,13.75
2022-09-30T11:57:59.474Z,13.78
2022-09-30T11:58:58.937Z,13.68
2022-09-30T11:59:58.957Z,13.79
2022-09-30T12:00:59.039Z,13.72
2022-09-30T12:01:58.992Z,13.75
2022-09-30T12:02:58.883Z,13.75
2022-09-30T12:03:58.784Z,13.75
2022-09-30T12:04:58.795Z,13.74
2022-09-30T12:05:59.125Z,13.78
2022-09-30T12:06:58.823Z,13.74
2022-09-30T12:07:58.854Z,13.75
2022-09-30T12:08:59.126Z,13.83
2022-09-30T12:09:58.910Z,13.81
2022-09-30T12:10:58.893Z,13.79
2022-09-30T12:11:59.185Z,13.9
2022-09-30T12:12:58.959Z,13.92
2022-09-30T12:13:59.212Z,13.86
2022-09-30T12:14:59.223Z,13.87
2022-09-30T12:15:58.999Z,13.85
2022-09-30T12:16:59.564Z,13.95
2022-09-30T12:17:59.045Z,14
2022-09-30T12:18:59.052Z,14.04
2022-09-30T12:19:59.310Z,14.03
2022-09-30T12:20:59.341Z,14.07
2022-09-30T12:21:59.361Z,14.11
2022-09-30T12:22:59.368Z,14.15
2022-09-30T12:23:59.136Z,14.15
2022-09-30T12:24:59.140Z,14.2
2022-09-30T12:25:59.305Z,14.2
2022-09-30T12:26:59.447Z,14.15
2022-09-30T12:27:59.626Z,14.25
2022-09-30T12:29:03.605Z,14.28
2022-09-30T12:29:59.241Z,14.28
2022-09-30T12:30:59.507Z,14.36
2022-09-30T12:32:00.003Z,14.28
2022-09-30T12:32:59.646Z,14.43
2022-09-30T12:33:59.565Z,14.47
2022-09-30T12:34:59.339Z,14.47
2022-09-30T12:35:59.630Z,14.41
2022-09-30T12:36:59.624Z,14.43
2022-09-30T12:37:59.388Z,14.54
2022-09-30T12:38:59.423Z,14.47
2022-09-30T12:39:59.444Z,14.47
2022-09-30T12:40:59.695Z,14.37
2022-09-30T12:41:59.736Z,14.5
2022-09-30T12:42:59.736Z,14.51
2022-09-30T12:43:59.498Z,14.48
2022-09-30T12:44:59.767Z,14.47
2022-09-30T12:46:00.082Z,14.45
2022-09-30T12:46:59.806Z,14.54
2022-09-30T12:47:59.570Z,14.5
2022-09-30T12:49:00.093Z,14.54
2022-09-30T12:49:59.866Z,14.6
2022-09-30T12:50:59.767Z,14.58
2022-09-30T12:51:59.902Z,14.63
2022-09-30T12:52:59.650Z,14.59
2022-09-30T12:53:59.426Z,14.7
2022-09-30T12:54:59.696Z,14.78
2022-09-30T12:55:59.719Z,14.82
2022-09-30T12:56:59.987Z,14.81